sensor_id;sensor_type;location;lat;lon;timestamp;P1;durP1;ratioP1;P2;durP2;ratioP2
7156;SDS011;3620;49.862;8.758;2022-07-24T00:01:13;0.50;;;0.50;;
7156;SDS011;3620;49.862;8.758;2022-07-24T00:03:40;0.50;;;0.50;;
7156;SDS011;3620;49.862;8.758;2022-07-24T00:06:07;0.50;;;0.50;;
7156;SDS011;3620;49.862;8.758;2022-07-24T00:08:33;0.50;;;0.50;;
7156;SDS011;3620;49.862;8.758;2022-07-24T00:11:00;0.50;;;0.50;;
7156;SDS011;3620;49.862;8.758;2022-07-24T00:13:27;0.50;;;0.50;;
7156;SDS011;3620;49.862;8.758;2022-07-24T00:15:55;0.50;;;0.50;;
7156;SDS011;3620;49.862;8.758;2022-07-24T00:18:22;0.50;;;0.50;;
7156;SDS011;3620;49.862;8.758;2022-07-24T00:20:49;0.50;;;0.50;;
7156;SDS011;3620;49.862;8.758;2022-07-24T00:23:16;0.50;;;0.50;;
7156;SDS011;3620;49.862;8.758;2022-07-24T00:25:42;0.50;;;0.50;;
7156;SDS011;3620;49.862;8.758;2022-07-24T00:28:09;0.47;;;0.47;;
7156;SDS011;3620;49.862;8.758;2022-07-24T00:30:36;0.50;;;0.50;;
7156;SDS011;3620;49.862;8.758;2022-07-24T00:33:04;0.50;;;0.50;;
7156;SDS011;3620;49.862;8.758;2022-07-24T00:35:31;0.47;;;0.47;;
7156;SDS011;3620;49.862;8.758;2022-07-24T00:37:59;0.50;;;0.50;;
7156;SDS011;3620;49.862;8.758;2022-07-24T00:40:25;0.50;;;0.50;;
7156;SDS011;3620;49.862;8.758;2022-07-24T00:42:52;0.50;;;0.50;;
7156;SDS011;3620;49.862;8.758;2022-07-24T00:45:20;0.50;;;0.50;;
7156;SDS011;3620;49.862;8.758;2022-07-24T00:47:46;0.50;;;0.50;;
7156;SDS011;3620;49.862;8.758;2022-07-24T00:50:15;0.50;;;0.50;;
7156;SDS011;3620;49.862;8.758;2022-07-24T00:52:42;0.50;;;0.50;;
7156;SDS011;3620;49.862;8.758;2022-07-24T00:55:09;0.50;;;0.50;;
7156;SDS011;3620;49.862;8.758;2022-07-24T00:57:36;0.60;;;0.60;;
7156;SDS011;3620;49.862;8.758;2022-07-24T01:00:04;0.50;;;0.50;;
7156;SDS011;3620;49.862;8.758;2022-07-24T01:02:32;0.50;;;0.50;;
7156;SDS011;3620;49.862;8.758;2022-07-24T01:04:59;0.50;;;0.50;;
7156;SDS011;3620;49.862;8.758;2022-07-24T01:07:27;0.50;;;0.50;;
7156;SDS011;3620;49.862;8.758;2022-07-24T01:09:54;0.50;;;0.50;;
7156;SDS011;3620;49.862;8.758;2022-07-24T01:12:21;0.50;;;0.50;;
7156;SDS011;3620;49.862;8.758;2022-07-24T01:14:48;0.50;;;0.50;;
7156;SDS011;3620;49.862;8.758;2022-07-24T01:17:15;0.50;;;0.50;;
7156;SDS011;3620;49.862;8.758;2022-07-24T01:19:42;0.50;;;0.50;;
7156;SDS011;3620;49.862;8.758;2022-07-24T01:22:10;0.50;;;0.50;;
7156;SDS011;3620;49.862;8.758;2022-07-24T01:24:36;0.60;;;0.60;;
7156;SDS011;3620;49.862;8.758;2022-07-24T01:27:03;0.50;;;0.50;;
7156;SDS011;3620;49.862;8.758;2022-07-24T01:29:30;0.53;;;0.53;;
7156;SDS011;3620;49.862;8.758;2022-07-24T01:31:57;0.50;;;0.50;;
7156;SDS011;3620;49.862;8.758;2022-07-24T01:34:24;0.50;;;0.50;;
7156;SDS011;3620;49.862;8.758;2022-07-24T01:36:51;0.40;;;0.40;;
7156;SDS011;3620;49.862;8.758;2022-07-24T01:39:19;0.50;;;0.50;;
7156;SDS011;3620;49.862;8.758;2022-07-24T01:41:46;0.50;;;0.50;;
7156;SDS011;3620;49.862;8.758;2022-07-24T01:44:13;0.50;;;0.50;;
7156;SDS011;3620;49.862;8.758;2022-07-24T01:46:39;0.50;;;0.50;;
7156;SDS011;3620;49.862;8.758;2022-07-24T01:49:06;0.60;;;0.60;;
7156;SDS011;3620;49.862;8.758;2022-07-24T01:51:33;0.50;;;0.50;;
7156;SDS011;3620;49.862;8.758;2022-07-24T01:54:00;0.53;;;0.53;;
7156;SDS011;3620;49.862;8.758;2022-07-24T01:56:29;0.50;;;0.50;;
7156;SDS011;3620;49.862;8.758;2022-07-24T01:58:56;0.53;;;0.53;;
7156;SDS011;3620;49.862;8.758;2022-07-24T02:01:23;0.60;;;0.60;;
7156;SDS011;3620;49.862;8.758;2022-07-24T02:03:50;0.50;;;0.50;;
7156;SDS011;3620;49.862;8.758;2022-07-24T02:06:17;0.50;;;0.50;;
7156;SDS011;3620;49.862;8.758;2022-07-24T02:08:44;0.50;;;0.50;;
7156;SDS011;3620;49.862;8.758;2022-07-24T02:11:11;0.50;;;0.50;;
7156;SDS011;3620;49.862;8.758;2022-07-24T02:13:39;0.60;;;0.60;;
7156;SDS011;3620;49.862;8.758;2022-07-24T02:16:06;0.50;;;0.50;;
7156;SDS011;3620;49.862;8.758;2022-07-24T02:18:33;0.50;;;0.50;;
7156;SDS011;3620;49.862;8.758;2022-07-24T02:21:00;0.50;;;0.50;;
7156;SDS011;3620;49.862;8.758;2022-07-24T02:23:27;0.50;;;0.50;;
7156;SDS011;3620;49.862;8.758;2022-07-24T02:25:54;0.60;;;0.60;;
7156;SDS011;3620;49.862;8.758;2022-07-24T02:28:20;0.57;;;0.57;;
7156;SDS011;3620;49.862;8.758;2022-07-24T02:30:49;0.40;;;0.40;;
7156;SDS011;3620;49.862;8.758;2022-07-24T02:33:16;0.60;;;0.60;;
7156;SDS011;3620;49.862;8.758;2022-07-24T02:35:43;0.50;;;0.50;;
7156;SDS011;3620;49.862;8.758;2022-07-24T02:38:09;0.60;;;0.60;;
7156;SDS011;3620;49.862;8.758;2022-07-24T02:40:36;0.60;;;0.60;;
7156;SDS011;3620;49.862;8.758;2022-07-24T02:43:03;0.50;;;0.50;;
7156;SDS011;3620;49.862;8.758;2022-07-24T02:45:30;0.50;;;0.50;;
7156;SDS011;3620;49.862;8.758;2022-07-24T02:47:58;0.50;;;0.50;;
7156;SDS011;3620;49.862;8.758;2022-07-24T02:50:29;0.57;;;0.57;;
7156;SDS011;3620;49.862;8.758;2022-07-24T02:52:56;0.50;;;0.50;;
7156;SDS011;3620;49.862;8.758;2022-07-24T02:55:23;0.50;;;0.50;;
7156;SDS011;3620;49.862;8.758;2022-07-24T02:57:53;0.60;;;0.60;;
7156;SDS011;3620;49.862;8.758;2022-07-24T03:00:20;0.50;;;0.50;;
7156;SDS011;3620;49.862;8.758;2022-07-24T03:02:47;0.60;;;0.60;;
7156;SDS011;3620;49.862;8.758;2022-07-24T03:05:15;0.40;;;0.40;;
7156;SDS011;3620;49.862;8.758;2022-07-24T03:07:43;0.60;;;0.60;;
7156;SDS011;3620;49.862;8.758;2022-07-24T03:10:10;0.50;;;0.50;;
7156;SDS011;3620;49.862;8.758;2022-07-24T03:12:39;0.60;;;0.60;;
7156;SDS011;3620;49.862;8.758;2022-07-24T03:15:07;0.60;;;0.60;;
7156;SDS011;3620;49.862;8.758;2022-07-24T03:17:34;0.50;;;0.50;;
7156;SDS011;3620;49.862;8.758;2022-07-24T03:20:01;0.53;;;0.53;;
7156;SDS011;3620;49.862;8.758;2022-07-24T03:22:30;0.53;;;0.53;;
7156;SDS011;3620;49.862;8.758;2022-07-24T03:24:57;0.53;;;0.53;;
7156;SDS011;3620;49.862;8.758;2022-07-24T03:27:26;0.50;;;0.50;;
7156;SDS011;3620;49.862;8.758;2022-07-24T03:29:53;0.50;;;0.50;;
7156;SDS011;3620;49.862;8.758;2022-07-24T03:32:19;0.60;;;0.60;;
7156;SDS011;3620;49.862;8.758;2022-07-24T03:34:46;0.50;;;0.50;;
7156;SDS011;3620;49.862;8.758;2022-07-24T03:37:13;0.50;;;0.50;;
7156;SDS011;3620;49.862;8.758;2022-07-24T03:39:41;0.50;;;0.50;;
7156;SDS011;3620;49.862;8.758;2022-07-24T03:42:08;0.50;;;0.50;;
7156;SDS011;3620;49.862;8.758;2022-07-24T03:44:35;0.60;;;0.60;;
7156;SDS011;3620;49.862;8.758;2022-07-24T03:47:01;0.60;;;0.60;;
7156;SDS011;3620;49.862;8.758;2022-07-24T03:49:28;0.50;;;0.50;;
7156;SDS011;3620;49.862;8.758;2022-07-24T03:51:55;0.57;;;0.57;;
7156;SDS011;3620;49.862;8.758;2022-07-24T03:54:23;0.50;;;0.50;;
7156;SDS011;3620;49.862;8.758;2022-07-24T03:56:51;0.57;;;0.57;;
7156;SDS011;3620;49.862;8.758;2022-07-24T03:59:18;0.50;;;0.50;;
7156;SDS011;3620;49.862;8.758;2022-07-24T04:01:44;0.50;;;0.50;;
7156;SDS011;3620;49.862;8.758;2022-07-24T04:04:11;0.60;;;0.60;;
7156;SDS011;3620;49.862;8.758;2022-07-24T04:06:38;0.70;;;0.70;;
7156;SDS011;3620;49.862;8.758;2022-07-24T04:09:05;0.50;;;0.50;;
7156;SDS011;3620;49.862;8.758;2022-07-24T04:11:32;0.60;;;0.60;;
7156;SDS011;3620;49.862;8.758;2022-07-24T04:14:01;0.60;;;0.60;;
7156;SDS011;3620;49.862;8.758;2022-07-24T04:16:27;0.53;;;0.53;;
7156;SDS011;3620;49.862;8.758;2022-07-24T04:18:54;0.60;;;0.60;;
7156;SDS011;3620;49.862;8.758;2022-07-24T04:21:21;0.60;;;0.60;;
7156;SDS011;3620;49.862;8.758;2022-07-24T04:23:48;0.60;;;0.60;;
7156;SDS011;3620;49.862;8.758;2022-07-24T04:26:15;0.60;;;0.60;;
7156;SDS011;3620;49.862;8.758;2022-07-24T04:28:41;0.60;;;0.60;;
7156;SDS011;3620;49.862;8.758;2022-07-24T04:31:10;0.60;;;0.60;;
7156;SDS011;3620;49.862;8.758;2022-07-24T04:33:36;0.60;;;0.60;;
7156;SDS011;3620;49.862;8.758;2022-07-24T04:36:04;0.60;;;0.60;;
7156;SDS011;3620;49.862;8.758;2022-07-24T04:38:31;0.50;;;0.50;;
7156;SDS011;3620;49.862;8.758;2022-07-24T04:40:58;0.50;;;0.50;;
7156;SDS011;3620;49.862;8.758;2022-07-24T04:43:25;0.50;;;0.50;;
7156;SDS011;3620;49.862;8.758;2022-07-24T04:45:52;0.60;;;0.60;;
7156;SDS011;3620;49.862;8.758;2022-07-24T04:48:20;0.50;;;0.50;;
7156;SDS011;3620;49.862;8.758;2022-07-24T04:50:47;0.50;;;0.50;;
7156;SDS011;3620;49.862;8.758;2022-07-24T04:53:13;0.60;;;0.60;;
7156;SDS011;3620;49.862;8.758;2022-07-24T04:55:40;0.57;;;0.57;;
7156;SDS011;3620;49.862;8.758;2022-07-24T04:58:07;0.60;;;0.60;;
7156;SDS011;3620;49.862;8.758;2022-07-24T05:00:34;0.60;;;0.60;;
7156;SDS011;3620;49.862;8.758;2022-07-24T05:03:00;0.50;;;0.50;;
7156;SDS011;3620;49.862;8.758;2022-07-24T05:05:28;0.40;;;0.40;;
7156;SDS011;3620;49.862;8.758;2022-07-24T05:07:55;0.57;;;0.57;;
7156;SDS011;3620;49.862;8.758;2022-07-24T05:10:22;0.50;;;0.50;;
7156;SDS011;3620;49.862;8.758;2022-07-24T05:12:48;0.60;;;0.60;;
7156;SDS011;3620;49.862;8.758;2022-07-24T05:15:15;0.50;;;0.50;;
7156;SDS011;3620;49.862;8.758;2022-07-24T05:17:42;0.60;;;0.60;;
7156;SDS011;3620;49.862;8.758;2022-07-24T05:20:09;0.60;;;0.60;;
7156;SDS011;3620;49.862;8.758;2022-07-24T05:22:38;0.60;;;0.60;;
7156;SDS011;3620;49.862;8.758;2022-07-24T05:25:05;0.50;;;0.50;;
7156;SDS011;3620;49.862;8.758;2022-07-24T05:27:32;0.60;;;0.60;;
7156;SDS011;3620;49.862;8.758;2022-07-24T05:30:00;0.60;;;0.60;;
7156;SDS011;3620;49.862;8.758;2022-07-24T05:32:27;0.60;;;0.60;;
7156;SDS011;3620;49.862;8.758;2022-07-24T05:34:53;0.60;;;0.60;;
7156;SDS011;3620;49.862;8.758;2022-07-24T05:37:20;0.60;;;0.60;;
7156;SDS011;3620;49.862;8.758;2022-07-24T05:39:48;0.60;;;0.60;;
7156;SDS011;3620;49.862;8.758;2022-07-24T05:42:15;0.60;;;0.60;;
7156;SDS011;3620;49.862;8.758;2022-07-24T05:44:42;0.60;;;0.60;;
7156;SDS011;3620;49.862;8.758;2022-07-24T05:47:09;0.60;;;0.60;;
7156;SDS011;3620;49.862;8.758;2022-07-24T05:49:37;0.50;;;0.50;;
7156;SDS011;3620;49.862;8.758;2022-07-24T05:52:04;0.60;;;0.60;;
7156;SDS011;3620;49.862;8.758;2022-07-24T05:54:31;0.60;;;0.60;;
7156;SDS011;3620;49.862;8.758;2022-07-24T05:56:59;0.50;;;0.50;;
7156;SDS011;3620;49.862;8.758;2022-07-24T05:59:26;0.60;;;0.60;;
7156;SDS011;3620;49.862;8.758;2022-07-24T06:01:53;0.57;;;0.57;;
7156;SDS011;3620;49.862;8.758;2022-07-24T06:04:19;0.50;;;0.50;;
7156;SDS011;3620;49.862;8.758;2022-07-24T06:06:47;0.60;;;0.60;;
7156;SDS011;3620;49.862;8.758;2022-07-24T06:09:13;0.60;;;0.60;;
7156;SDS011;3620;49.862;8.758;2022-07-24T06:11:40;0.60;;;0.60;;
7156;SDS011;3620;49.862;8.758;2022-07-24T06:14:08;0.53;;;0.53;;
7156;SDS011;3620;49.862;8.758;2022-07-24T06:16:35;0.60;;;0.60;;
7156;SDS011;3620;49.862;8.758;2022-07-24T06:19:02;0.60;;;0.60;;
7156;SDS011;3620;49.862;8.758;2022-07-24T06:21:29;0.60;;;0.60;;
7156;SDS011;3620;49.862;8.758;2022-07-24T06:23:55;0.60;;;0.60;;
7156;SDS011;3620;49.862;8.758;2022-07-24T06:26:22;0.50;;;0.50;;
7156;SDS011;3620;49.862;8.758;2022-07-24T06:28:49;0.50;;;0.50;;
7156;SDS011;3620;49.862;8.758;2022-07-24T06:31:17;0.50;;;0.50;;
7156;SDS011;3620;49.862;8.758;2022-07-24T06:33:44;0.60;;;0.60;;
7156;SDS011;3620;49.862;8.758;2022-07-24T06:36:11;0.60;;;0.60;;
7156;SDS011;3620;49.862;8.758;2022-07-24T06:38:37;0.50;;;0.50;;
7156;SDS011;3620;49.862;8.758;2022-07-24T06:41:04;0.50;;;0.50;;
7156;SDS011;3620;49.862;8.758;2022-07-24T06:43:31;0.50;;;0.50;;
7156;SDS011;3620;49.862;8.758;2022-07-24T06:45:58;0.50;;;0.50;;
7156;SDS011;3620;49.862;8.758;2022-07-24T06:48:26;0.60;;;0.60;;
7156;SDS011;3620;49.862;8.758;2022-07-24T06:50:53;0.60;;;0.60;;
7156;SDS011;3620;49.862;8.758;2022-07-24T06:53:20;0.50;;;0.50;;
7156;SDS011;3620;49.862;8.758;2022-07-24T06:55:47;0.50;;;0.50;;
7156;SDS011;3620;49.862;8.758;2022-07-24T06:58:14;0.50;;;0.50;;
7156;SDS011;3620;49.862;8.758;2022-07-24T07:00:41;0.50;;;0.50;;
7156;SDS011;3620;49.862;8.758;2022-07-24T07:03:07;0.50;;;0.50;;
7156;SDS011;3620;49.862;8.758;2022-07-24T07:05:36;0.60;;;0.60;;
7156;SDS011;3620;49.862;8.758;2022-07-24T07:08:02;0.50;;;0.50;;
7156;SDS011;3620;49.862;8.758;2022-07-24T07:10:30;0.50;;;0.50;;
7156;SDS011;3620;49.862;8.758;2022-07-24T07:12:57;0.50;;;0.50;;
7156;SDS011;3620;49.862;8.758;2022-07-24T07:15:23;0.50;;;0.50;;
7156;SDS011;3620;49.862;8.758;2022-07-24T07:17:50;0.50;;;0.50;;
7156;SDS011;3620;49.862;8.758;2022-07-24T07:20:17;0.50;;;0.50;;
7156;SDS011;3620;49.862;8.758;2022-07-24T07:22:45;0.50;;;0.50;;
7156;SDS011;3620;49.862;8.758;2022-07-24T07:25:12;0.50;;;0.50;;
7156;SDS011;3620;49.862;8.758;2022-07-24T07:27:39;0.50;;;0.50;;
7156;SDS011;3620;49.862;8.758;2022-07-24T07:30:07;0.40;;;0.40;;
7156;SDS011;3620;49.862;8.758;2022-07-24T07:32:34;0.53;;;0.53;;
7156;SDS011;3620;49.862;8.758;2022-07-24T07:35:02;0.50;;;0.50;;
7156;SDS011;3620;49.862;8.758;2022-07-24T07:37:29;0.50;;;0.50;;
7156;SDS011;3620;49.862;8.758;2022-07-24T07:39:57;0.50;;;0.50;;
7156;SDS011;3620;49.862;8.758;2022-07-24T07:42:24;0.40;;;0.40;;
7156;SDS011;3620;49.862;8.758;2022-07-24T07:44:51;0.50;;;0.50;;
7156;SDS011;3620;49.862;8.758;2022-07-24T07:47:18;0.50;;;0.50;;
7156;SDS011;3620;49.862;8.758;2022-07-24T07:49:45;0.50;;;0.50;;
7156;SDS011;3620;49.862;8.758;2022-07-24T07:52:11;0.40;;;0.40;;
7156;SDS011;3620;49.862;8.758;2022-07-24T07:54:38;0.43;;;0.43;;
7156;SDS011;3620;49.862;8.758;2022-07-24T07:57:06;0.50;;;0.50;;
7156;SDS011;3620;49.862;8.758;2022-07-24T07:59:33;0.40;;;0.40;;
7156;SDS011;3620;49.862;8.758;2022-07-24T08:02:00;0.50;;;0.50;;
7156;SDS011;3620;49.862;8.758;2022-07-24T08:04:27;0.50;;;0.50;;
7156;SDS011;3620;49.862;8.758;2022-07-24T08:06:53;0.50;;;0.50;;
7156;SDS011;3620;49.862;8.758;2022-07-24T08:09:20;0.50;;;0.50;;
7156;SDS011;3620;49.862;8.758;2022-07-24T08:11:47;0.40;;;0.40;;
7156;SDS011;3620;49.862;8.758;2022-07-24T08:14:16;0.40;;;0.40;;
7156;SDS011;3620;49.862;8.758;2022-07-24T08:16:43;0.40;;;0.40;;
7156;SDS011;3620;49.862;8.758;2022-07-24T08:19:09;0.50;;;0.50;;
7156;SDS011;3620;49.862;8.758;2022-07-24T08:21:36;0.50;;;0.50;;
7156;SDS011;3620;49.862;8.758;2022-07-24T08:24:03;0.50;;;0.50;;
7156;SDS011;3620;49.862;8.758;2022-07-24T08:26:31;0.50;;;0.50;;
7156;SDS011;3620;49.862;8.758;2022-07-24T08:28:57;0.40;;;0.40;;
7156;SDS011;3620;49.862;8.758;2022-07-24T08:31:26;0.43;;;0.43;;
7156;SDS011;3620;49.862;8.758;2022-07-24T08:33:52;0.50;;;0.50;;
7156;SDS011;3620;49.862;8.758;2022-07-24T08:36:19;0.40;;;0.40;;
7156;SDS011;3620;49.862;8.758;2022-07-24T08:38:46;0.40;;;0.40;;
7156;SDS011;3620;49.862;8.758;2022-07-24T08:41:13;0.40;;;0.40;;
7156;SDS011;3620;49.862;8.758;2022-07-24T08:43:41;0.50;;;0.50;;
7156;SDS011;3620;49.862;8.758;2022-07-24T08:46:09;0.40;;;0.40;;
7156;SDS011;3620;49.862;8.758;2022-07-24T08:48:38;0.40;;;0.40;;
7156;SDS011;3620;49.862;8.758;2022-07-24T08:51:09;0.50;;;0.50;;
7156;SDS011;3620;49.862;8.758;2022-07-24T08:53:38;0.50;;;0.50;;
7156;SDS011;3620;49.862;8.758;2022-07-24T08:56:05;0.50;;;0.50;;
7156;SDS011;3620;49.862;8.758;2022-07-24T08:58:35;0.50;;;0.50;;
7156;SDS011;3620;49.862;8.758;2022-07-24T09:01:03;0.40;;;0.40;;
7156;SDS011;3620;49.862;8.758;2022-07-24T09:03:38;0.50;;;0.50;;
7156;SDS011;3620;49.862;8.758;2022-07-24T09:06:07;0.40;;;0.40;;
7156;SDS011;3620;49.862;8.758;2022-07-24T09:08:34;0.40;;;0.40;;
7156;SDS011;3620;49.862;8.758;2022-07-24T09:11:02;0.40;;;0.40;;
7156;SDS011;3620;49.862;8.758;2022-07-24T09:13:30;0.40;;;0.40;;
7156;SDS011;3620;49.862;8.758;2022-07-24T09:16:17;0.40;;;0.40;;
7156;SDS011;3620;49.862;8.758;2022-07-24T09:18:49;0.43;;;0.43;;
7156;SDS011;3620;49.862;8.758;2022-07-24T09:21:17;0.50;;;0.50;;
7156;SDS011;3620;49.862;8.758;2022-07-24T09:23:44;0.40;;;0.40;;
7156;SDS011;3620;49.862;8.758;2022-07-24T09:26:13;0.40;;;0.40;;
7156;SDS011;3620;49.862;8.758;2022-07-24T09:28:48;0.45;;;0.45;;
7156;SDS011;3620;49.862;8.758;2022-07-24T09:31:15;0.50;;;0.50;;
7156;SDS011;3620;49.862;8.758;2022-07-24T09:33:42;0.47;;;0.47;;
7156;SDS011;3620;49.862;8.758;2022-07-24T09:36:14;0.40;;;0.40;;
7156;SDS011;3620;49.862;8.758;2022-07-24T09:38:46;0.40;;;0.40;;
7156;SDS011;3620;49.862;8.758;2022-07-24T09:41:18;0.40;;;0.40;;
7156;SDS011;3620;49.862;8.758;2022-07-24T09:43:55;0.40;;;0.40;;
7156;SDS011;3620;49.862;8.758;2022-07-24T09:46:24;0.40;;;0.40;;
7156;SDS011;3620;49.862;8.758;2022-07-24T09:48:52;0.40;;;0.40;;
7156;SDS011;3620;49.862;8.758;2022-07-24T09:51:23;0.40;;;0.40;;
7156;SDS011;3620;49.862;8.758;2022-07-24T09:53:52;0.40;;;0.40;;
7156;SDS011;3620;49.862;8.758;2022-07-24T09:56:20;0.40;;;0.40;;
7156;SDS011;3620;49.862;8.758;2022-07-24T09:58:48;0.40;;;0.40;;
7156;SDS011;3620;49.862;8.758;2022-07-24T10:01:17;0.40;;;0.40;;
7156;SDS011;3620;49.862;8.758;2022-07-24T10:03:46;0.40;;;0.40;;
7156;SDS011;3620;49.862;8.758;2022-07-24T10:06:15;0.40;;;0.40;;
7156;SDS011;3620;49.862;8.758;2022-07-24T10:08:53;0.40;;;0.40;;
7156;SDS011;3620;49.862;8.758;2022-07-24T10:11:21;0.40;;;0.40;;
7156;SDS011;3620;49.862;8.758;2022-07-24T10:13:49;0.40;;;0.40;;
7156;SDS011;3620;49.862;8.758;2022-07-24T10:16:25;0.40;;;0.40;;
7156;SDS011;3620;49.862;8.758;2022-07-24T10:18:54;0.40;;;0.40;;
7156;SDS011;3620;49.862;8.758;2022-07-24T10:21:23;0.40;;;0.40;;
7156;SDS011;3620;49.862;8.758;2022-07-24T10:23:58;0.40;;;0.40;;
7156;SDS011;3620;49.862;8.758;2022-07-24T10:26:47;0.40;;;0.40;;
7156;SDS011;3620;49.862;8.758;2022-07-24T10:29:17;0.40;;;0.40;;
7156;SDS011;3620;49.862;8.758;2022-07-24T10:31:47;0.32;;;0.32;;
7156;SDS011;3620;49.862;8.758;2022-07-24T10:34:16;0.30;;;0.30;;
7156;SDS011;3620;49.862;8.758;2022-07-24T10:36:57;0.38;;;0.38;;
7156;SDS011;3620;49.862;8.758;2022-07-24T10:39:36;0.35;;;0.35;;
7156;SDS011;3620;49.862;8.758;2022-07-24T10:42:08;0.40;;;0.40;;
7156;SDS011;3620;49.862;8.758;2022-07-24T10:44:34;0.40;;;0.40;;
7156;SDS011;3620;49.862;8.758;2022-07-24T10:47:06;0.40;;;0.40;;
7156;SDS011;3620;49.862;8.758;2022-07-24T10:49:34;0.30;;;0.30;;
7156;SDS011;3620;49.862;8.758;2022-07-24T10:52:10;0.40;;;0.40;;
7156;SDS011;3620;49.862;8.758;2022-07-24T10:54:40;0.40;;;0.40;;
7156;SDS011;3620;49.862;8.758;2022-07-24T10:57:07;0.40;;;0.40;;
7156;SDS011;3620;49.862;8.758;2022-07-24T10:59:35;0.38;;;0.38;;
7156;SDS011;3620;49.862;8.758;2022-07-24T11:02:23;0.40;;;0.40;;
7156;SDS011;3620;49.862;8.758;2022-07-24T11:11:13;0.40;;;0.40;;
7156;SDS011;3620;49.862;8.758;2022-07-24T11:13:42;0.30;;;0.30;;
7156;SDS011;3620;49.862;8.758;2022-07-24T11:16:11;0.40;;;0.40;;
7156;SDS011;3620;49.862;8.758;2022-07-24T11:19:23;0.40;;;0.40;;
7156;SDS011;3620;49.862;8.758;2022-07-24T11:21:47;0.30;;;0.30;;
7156;SDS011;3620;49.862;8.758;2022-07-24T11:24:27;0.40;;;0.40;;
7156;SDS011;3620;49.862;8.758;2022-07-24T11:26:57;0.40;;;0.40;;
7156;SDS011;3620;49.862;8.758;2022-07-24T11:29:26;0.30;;;0.30;;
7156;SDS011;3620;49.862;8.758;2022-07-24T11:31:57;0.40;;;0.40;;
7156;SDS011;3620;49.862;8.758;2022-07-24T11:34:24;0.30;;;0.30;;
7156;SDS011;3620;49.862;8.758;2022-07-24T11:36:53;0.30;;;0.30;;
7156;SDS011;3620;49.862;8.758;2022-07-24T11:39:26;0.30;;;0.30;;
7156;SDS011;3620;49.862;8.758;2022-07-24T11:41:57;0.30;;;0.30;;
7156;SDS011;3620;49.862;8.758;2022-07-24T11:44:26;0.40;;;0.40;;
7156;SDS011;3620;49.862;8.758;2022-07-24T11:46:55;0.30;;;0.30;;
7156;SDS011;3620;49.862;8.758;2022-07-24T11:49:23;0.30;;;0.30;;
7156;SDS011;3620;49.862;8.758;2022-07-24T11:51:51;0.30;;;0.30;;
7156;SDS011;3620;49.862;8.758;2022-07-24T11:54:20;0.30;;;0.30;;
7156;SDS011;3620;49.862;8.758;2022-07-24T11:56:48;0.30;;;0.30;;
7156;SDS011;3620;49.862;8.758;2022-07-24T11:59:23;0.35;;;0.35;;
7156;SDS011;3620;49.862;8.758;2022-07-24T12:01:54;0.30;;;0.30;;
7156;SDS011;3620;49.862;8.758;2022-07-24T12:04:22;0.30;;;0.30;;
7156;SDS011;3620;49.862;8.758;2022-07-24T12:06:49;0.30;;;0.30;;
7156;SDS011;3620;49.862;8.758;2022-07-24T12:09:16;0.30;;;0.30;;
7156;SDS011;3620;49.862;8.758;2022-07-24T12:11:43;0.40;;;0.40;;
7156;SDS011;3620;49.862;8.758;2022-07-24T12:14:13;0.40;;;0.40;;
7156;SDS011;3620;49.862;8.758;2022-07-24T12:16:43;0.30;;;0.30;;
7156;SDS011;3620;49.862;8.758;2022-07-24T12:19:17;0.30;;;0.30;;
7156;SDS011;3620;49.862;8.758;2022-07-24T12:21:45;0.30;;;0.30;;
7156;SDS011;3620;49.862;8.758;2022-07-24T12:24:13;0.30;;;0.30;;
7156;SDS011;3620;49.862;8.758;2022-07-24T12:26:53;0.30;;;0.30;;
7156;SDS011;3620;49.862;8.758;2022-07-24T12:29:21;0.30;;;0.30;;
7156;SDS011;3620;49.862;8.758;2022-07-24T12:31:50;0.30;;;0.30;;
7156;SDS011;3620;49.862;8.758;2022-07-24T12:34:19;0.40;;;0.40;;
7156;SDS011;3620;49.862;8.758;2022-07-24T12:36:46;0.30;;;0.30;;
7156;SDS011;3620;49.862;8.758;2022-07-24T12:39:13;0.40;;;0.40;;
7156;SDS011;3620;49.862;8.758;2022-07-24T12:41:41;0.40;;;0.40;;
7156;SDS011;3620;49.862;8.758;2022-07-24T12:44:10;0.40;;;0.40;;
7156;SDS011;3620;49.862;8.758;2022-07-24T12:46:38;0.40;;;0.40;;
7156;SDS011;3620;49.862;8.758;2022-07-24T12:49:07;0.30;;;0.30;;
7156;SDS011;3620;49.862;8.758;2022-07-24T12:51:45;0.30;;;0.30;;
7156;SDS011;3620;49.862;8.758;2022-07-24T12:54:16;0.30;;;0.30;;
7156;SDS011;3620;49.862;8.758;2022-07-24T12:56:45;0.30;;;0.30;;
7156;SDS011;3620;49.862;8.758;2022-07-24T12:59:21;0.30;;;0.30;;
7156;SDS011;3620;49.862;8.758;2022-07-24T13:01:50;0.30;;;0.30;;
7156;SDS011;3620;49.862;8.758;2022-07-24T13:04:20;0.30;;;0.30;;
7156;SDS011;3620;49.862;8.758;2022-07-24T13:06:48;0.30;;;0.30;;
7156;SDS011;3620;49.862;8.758;2022-07-24T13:09:17;0.30;;;0.30;;
7156;SDS011;3620;49.862;8.758;2022-07-24T13:11:44;0.40;;;0.40;;
7156;SDS011;3620;49.862;8.758;2022-07-24T13:14:13;0.30;;;0.30;;
7156;SDS011;3620;49.862;8.758;2022-07-24T13:16:42;0.30;;;0.30;;
7156;SDS011;3620;49.862;8.758;2022-07-24T13:19:10;0.30;;;0.30;;
7156;SDS011;3620;49.862;8.758;2022-07-24T13:21:39;0.30;;;0.30;;
7156;SDS011;3620;49.862;8.758;2022-07-24T13:24:07;0.30;;;0.30;;
7156;SDS011;3620;49.862;8.758;2022-07-24T13:26:35;0.30;;;0.30;;
7156;SDS011;3620;49.862;8.758;2022-07-24T13:29:03;0.40;;;0.40;;
7156;SDS011;3620;49.862;8.758;2022-07-24T13:31:30;0.30;;;0.30;;
7156;SDS011;3620;49.862;8.758;2022-07-24T13:33:57;0.35;;;0.35;;
7156;SDS011;3620;49.862;8.758;2022-07-24T13:36:24;0.30;;;0.30;;
7156;SDS011;3620;49.862;8.758;2022-07-24T13:38:52;0.30;;;0.30;;
7156;SDS011;3620;49.862;8.758;2022-07-24T13:41:20;0.30;;;0.30;;
7156;SDS011;3620;49.862;8.758;2022-07-24T13:43:48;0.30;;;0.30;;
7156;SDS011;3620;49.862;8.758;2022-07-24T13:46:17;0.30;;;0.30;;
7156;SDS011;3620;49.862;8.758;2022-07-24T13:48:46;0.30;;;0.30;;
7156;SDS011;3620;49.862;8.758;2022-07-24T13:51:14;0.30;;;0.30;;
7156;SDS011;3620;49.862;8.758;2022-07-24T13:53:44;0.30;;;0.30;;
7156;SDS011;3620;49.862;8.758;2022-07-24T13:56:14;0.30;;;0.30;;
7156;SDS011;3620;49.862;8.758;2022-07-24T13:58:42;0.30;;;0.30;;
7156;SDS011;3620;49.862;8.758;2022-07-24T14:01:11;0.30;;;0.30;;
7156;SDS011;3620;49.862;8.758;2022-07-24T14:03:42;0.30;;;0.30;;
7156;SDS011;3620;49.862;8.758;2022-07-24T14:06:11;0.20;;;0.20;;
7156;SDS011;3620;49.862;8.758;2022-07-24T14:08:41;0.30;;;0.30;;
7156;SDS011;3620;49.862;8.758;2022-07-24T14:11:10;0.20;;;0.20;;
7156;SDS011;3620;49.862;8.758;2022-07-24T14:13:38;0.20;;;0.20;;
7156;SDS011;3620;49.862;8.758;2022-07-24T14:16:05;0.25;;;0.25;;
7156;SDS011;3620;49.862;8.758;2022-07-24T14:18:32;0.20;;;0.20;;
7156;SDS011;3620;49.862;8.758;2022-07-24T14:20:59;0.20;;;0.20;;
7156;SDS011;3620;49.862;8.758;2022-07-24T14:23:26;0.30;;;0.30;;
7156;SDS011;3620;49.862;8.758;2022-07-24T14:25:53;0.20;;;0.20;;
7156;SDS011;3620;49.862;8.758;2022-07-24T14:28:20;0.20;;;0.20;;
7156;SDS011;3620;49.862;8.758;2022-07-24T14:30:48;0.25;;;0.25;;
7156;SDS011;3620;49.862;8.758;2022-07-24T14:33:15;0.25;;;0.25;;
7156;SDS011;3620;49.862;8.758;2022-07-24T14:35:42;0.30;;;0.30;;
7156;SDS011;3620;49.862;8.758;2022-07-24T14:38:08;0.30;;;0.30;;
7156;SDS011;3620;49.862;8.758;2022-07-24T14:40:35;0.20;;;0.20;;
7156;SDS011;3620;49.862;8.758;2022-07-24T14:43:02;0.20;;;0.20;;
7156;SDS011;3620;49.862;8.758;2022-07-24T14:45:29;0.20;;;0.20;;
7156;SDS011;3620;49.862;8.758;2022-07-24T14:47:57;0.30;;;0.30;;
7156;SDS011;3620;49.862;8.758;2022-07-24T14:50:24;0.20;;;0.20;;
7156;SDS011;3620;49.862;8.758;2022-07-24T14:52:50;0.20;;;0.20;;
7156;SDS011;3620;49.862;8.758;2022-07-24T14:55:17;0.20;;;0.20;;
7156;SDS011;3620;49.862;8.758;2022-07-24T14:57:44;0.20;;;0.20;;
7156;SDS011;3620;49.862;8.758;2022-07-24T15:00:11;0.25;;;0.25;;
7156;SDS011;3620;49.862;8.758;2022-07-24T15:02:39;0.20;;;0.20;;
7156;SDS011;3620;49.862;8.758;2022-07-24T15:05:08;0.20;;;0.20;;
7156;SDS011;3620;49.862;8.758;2022-07-24T15:07:35;0.30;;;0.30;;
7156;SDS011;3620;49.862;8.758;2022-07-24T15:10:01;0.20;;;0.20;;
7156;SDS011;3620;49.862;8.758;2022-07-24T15:12:28;0.20;;;0.20;;
7156;SDS011;3620;49.862;8.758;2022-07-24T15:14:55;0.20;;;0.20;;
7156;SDS011;3620;49.862;8.758;2022-07-24T15:17:22;0.20;;;0.20;;
7156;SDS011;3620;49.862;8.758;2022-07-24T15:19:49;0.20;;;0.20;;
7156;SDS011;3620;49.862;8.758;2022-07-24T15:22:17;0.20;;;0.20;;
7156;SDS011;3620;49.862;8.758;2022-07-24T15:24:43;0.20;;;0.20;;
7156;SDS011;3620;49.862;8.758;2022-07-24T15:27:10;0.20;;;0.20;;